Time;durP1;ratioP1;P1;durP2;ratioP2;P2;SDS_P1;SDS_P2;PMS_P1;PMS_P2;Temp;Humidity;BMP_temperature;BMP_pressure;BME280_temperature;BME280_humidity;BME280_pressure;Samples;Min_cycle;Max_cycle;Signal;HPM_P1;HPM_P2
2021/06/23 00:01:20;;;;;;;6.35;5.30;;;12.20;99.90;;;;;;5128678;28;20019;-77
2021/06/23 00:03:46;;;;;;;9.05;5.80;;;12.10;99.90;;;;;;5110271;28;20023;-78
2021/06/23 00:06:12;;;;;;;8.35;5.82;;;12.20;99.90;;;;;;5128409;28;20035;-78
2021/06/23 00:08:37;;;;;;;11.43;6.53;;;12.20;99.90;;;;;;5110409;28;20031;-78
2021/06/23 00:11:04;;;;;;;5.88;5.00;;;12.20;99.90;;;;;;5129772;28;20038;-78
2021/06/23 00:13:33;;;;;;;8.70;4.93;;;12.20;99.90;;;;;;5111741;28;20092;-78
2021/06/23 00:16:05;;;;;;;8.32;4.75;;;12.20;99.90;;;;;;5109995;28;20027;-78
2021/06/23 00:18:30;;;;;;;9.25;5.57;;;12.20;99.90;;;;;;5109914;28;20019;-79
2021/06/23 00:20:56;;;;;;;10.75;7.55;;;12.20;99.90;;;;;;5092661;28;20540;-79
2021/06/23 00:23:23;;;;;;;11.30;7.10;;;12.20;99.90;;;;;;5128137;28;20032;-79
2021/06/23 00:25:49;;;;;;;9.13;7.75;;;12.10;99.90;;;;;;5127869;28;20035;-79
2021/06/23 00:28:15;;;;;;;10.73;7.50;;;12.10;99.90;;;;;;5128038;28;20023;-79
2021/06/23 00:30:41;;;;;;;15.30;9.30;;;12.00;99.90;;;;;;5127860;28;20032;-79
2021/06/23 00:33:09;;;;;;;11.50;8.93;;;12.00;99.90;;;;;;5128049;28;20028;-79
2021/06/23 00:35:35;;;;;;;12.82;7.88;;;11.90;99.90;;;;;;5109616;28;20038;-78
2021/06/23 00:38:02;;;;;;;16.20;9.55;;;11.90;99.90;;;;;;5109514;28;20024;-77
2021/06/23 00:40:28;;;;;;;13.90;9.27;;;11.90;99.90;;;;;;5109274;28;20119;-79
2021/06/23 00:42:54;;;;;;;12.55;5.50;;;11.90;99.90;;;;;;5109559;28;20031;-79
2021/06/23 00:45:40;;;;;;;9.80;6.85;;;12.00;99.90;;;;;;5109039;28;20074;-79
2021/06/23 00:48:10;;;;;;;11.55;7.07;;;11.90;99.90;;;;;;5086720;22;20044;-78
2021/06/23 00:50:41;;;;;;;11.95;7.38;;;12.10;99.90;;;;;;5073136;28;20063;-79
2021/06/23 00:53:27;;;;;;;10.60;6.53;;;12.00;99.90;;;;;;5075142;28;20031;-78
2021/06/23 00:55:55;;;;;;;8.25;5.90;;;12.10;99.90;;;;;;5086205;28;20447;-78
2021/06/23 00:58:23;;;;;;;7.50;5.78;;;12.10;99.90;;;;;;5109337;28;20019;-77
2021/06/23 01:00:54;;;;;;;7.78;5.43;;;12.10;99.90;;;;;;5092413;28;20031;-76
2021/06/23 01:03:21;;;;;;;10.50;5.07;;;12.20;99.90;;;;;;5109563;28;20020;-77
2021/06/23 01:05:57;;;;;;;9.02;5.15;;;12.20;99.90;;;;;;5109316;28;20156;-77
2021/06/23 01:08:23;;;;;;;13.82;5.68;;;12.20;99.90;;;;;;5092374;28;20031;-77
2021/06/23 01:10:50;;;;;;;7.72;4.90;;;12.20;99.90;;;;;;5092444;28;20111;-78
2021/06/23 01:13:29;;;;;;;9.38;4.45;;;12.20;99.90;;;;;;5092216;28;20050;-78
2021/06/23 01:15:58;;;;;;;7.53;3.53;;;12.10;99.90;;;;;;5091890;28;20039;-78
2021/06/23 01:18:24;;;;;;;11.80;5.27;;;12.20;99.90;;;;;;5108994;28;20043;-78
2021/06/23 01:20:51;;;;;;;9.18;5.20;;;12.10;99.90;;;;;;5091810;28;20031;-78
2021/06/23 01:23:18;;;;;;;5.72;4.15;;;12.10;99.90;;;;;;5091836;28;20073;-79
2021/06/23 01:25:47;;;;;;;9.07;5.20;;;12.10;99.90;;;;;;5091787;28;20049;-77
2021/06/23 01:28:12;;;;;;;8.95;4.43;;;12.10;99.90;;;;;;5126832;28;20177;-78
2021/06/23 01:30:44;;;;;;;8.20;5.38;;;12.00;99.90;;;;;;5092466;28;20102;-78
2021/06/23 01:33:38;;;;;;;6.68;4.65;;;12.10;99.90;;;;;;5109565;28;20278;-78
2021/06/23 01:36:05;;;;;;;5.32;3.78;;;12.10;99.90;;;;;;5108408;28;20040;-78
2021/06/23 01:38:31;;;;;;;5.45;4.07;;;12.10;99.90;;;;;;5108353;28;20036;-78
2021/06/23 01:40:58;;;;;;;9.93;4.70;;;12.10;99.90;;;;;;5108319;28;20035;-78
2021/06/23 01:43:24;;;;;;;7.32;4.15;;;12.10;99.90;;;;;;5091369;28;20093;-78
2021/06/23 01:45:51;;;;;;;5.28;3.45;;;12.20;99.90;;;;;;5108268;28;20027;-79
2021/06/23 01:48:24;;;;;;;10.68;4.80;;;12.20;99.90;;;;;;5107965;28;20044;-78
2021/06/23 01:50:52;;;;;;;10.02;4.53;;;12.20;99.90;;;;;;5126279;28;20079;-78
2021/06/23 01:53:18;;;;;;;11.02;4.43;;;12.20;99.90;;;;;;5101664;28;20052;-79
2021/06/23 01:55:47;;;;;;;11.38;4.65;;;12.20;99.90;;;;;;5100954;28;20035;-78
2021/06/23 01:58:12;;;;;;;10.02;4.45;;;12.20;99.90;;;;;;5091115;28;20057;-77
2021/06/23 02:00:51;;;;;;;9.65;4.32;;;12.20;99.90;;;;;;5107908;28;20035;-78
2021/06/23 02:03:41;;;;;;;8.07;3.30;;;12.30;99.90;;;;;;5108200;28;20486;-78
2021/06/23 02:06:34;;;;;;;9.07;3.97;;;12.30;99.90;;;;;;5069737;28;20045;-79
2021/06/23 02:09:12;;;;;;;6.78;3.22;;;12.30;99.90;;;;;;5107920;28;20205;-78
2021/06/23 02:11:45;;;;;;;4.00;1.40;;;12.30;99.90;;;;;;5091556;28;20112;-78
2021/06/23 02:14:36;;;;;;;5.97;2.97;;;12.30;99.90;;;;;;5107765;28;20103;-78
2021/06/23 02:17:23;;;;;;;8.20;3.85;;;12.20;99.90;;;;;;5126051;28;20038;-78
2021/06/23 02:19:59;;;;;;;5.78;2.30;;;12.20;99.90;;;;;;5109028;28;20027;-77
2021/06/23 02:22:34;;;;;;;7.10;3.13;;;12.20;99.90;;;;;;5107899;28;20035;-77
2021/06/23 02:25:11;;;;;;;5.90;3.03;;;12.20;99.90;;;;;;5107853;28;20055;-78
2021/06/23 02:27:52;;;;;;;6.97;3.55;;;12.30;99.90;;;;;;5107616;28;20091;-78
2021/06/23 02:30:18;;;;;;;6.00;3.05;;;12.30;99.90;;;;;;5091924;28;20032;-79
2021/06/23 02:32:55;;;;;;;6.47;2.80;;;12.30;99.90;;;;;;5091743;28;20031;-78
2021/06/23 02:35:26;;;;;;;9.70;4.45;;;12.30;99.90;;;;;;5107568;28;20036;-78
2021/06/23 02:37:54;;;;;;;7.50;3.50;;;12.20;99.90;;;;;;5107690;28;20034;-78
2021/06/23 02:40:21;;;;;;;5.88;3.42;;;12.30;99.90;;;;;;5090902;28;20031;-77
2021/06/23 02:43:04;;;;;;;7.70;3.25;;;12.30;99.90;;;;;;5125958;28;20097;-77
2021/06/23 02:48:51;;;;;;;6.78;3.55;;;12.20;99.90;;;;;;5004371;28;20590;-76
2021/06/23 02:51:24;;;;;;;5.95;3.28;;;12.10;99.90;;;;;;5006124;28;20026;-78
2021/06/23 02:53:59;;;;;;;11.77;3.08;;;12.10;99.90;;;;;;5005945;28;20132;-78
2021/06/23 02:56:39;;;;;;;7.20;5.45;;;12.10;99.90;;;;;;4988538;28;20045;-78
2021/06/23 02:59:05;;;;;;;8.20;4.85;;;12.10;99.90;;;;;;4988473;28;20026;-78
2021/06/23 03:01:31;;;;;;;7.05;3.83;;;12.10;99.90;;;;;;4988423;28;20034;-78
2021/06/23 03:04:06;;;;;;;6.97;3.67;;;12.10;99.90;;;;;;5004848;28;20042;-78
2021/06/23 03:06:43;;;;;;;9.07;4.18;;;12.10;99.90;;;;;;4988552;28;20165;-78
2021/06/23 03:09:10;;;;;;;8.05;4.45;;;12.10;99.90;;;;;;4988398;28;20402;-78
2021/06/23 03:11:56;;;;;;;5.20;3.50;;;12.10;99.90;;;;;;5001910;28;20027;-78
2021/06/23 03:14:30;;;;;;;6.40;5.03;;;12.10;99.90;;;;;;4988360;28;20101;-78
2021/06/23 03:16:58;;;;;;;12.18;5.40;;;12.00;99.90;;;;;;4988151;28;20430;-78
2021/06/23 03:19:25;;;;;;;13.90;6.00;;;12.10;99.90;;;;;;4991790;28;20022;-78
2021/06/23 03:21:51;;;;;;;6.90;5.00;;;12.00;99.90;;;;;;4991545;28;20510;-78
2021/06/23 03:24:19;;;;;;;10.25;4.88;;;12.00;99.90;;;;;;4999599;28;20036;-79
2021/06/23 03:26:50;;;;;;;9.98;5.55;;;12.10;99.90;;;;;;4991462;28;20057;-78
2021/06/23 03:29:27;;;;;;;11.63;6.13;;;12.00;99.90;;;;;;4991547;28;20455;-78
2021/06/23 03:31:54;;;;;;;9.57;5.90;;;12.10;99.90;;;;;;4991467;28;20057;-77
2021/06/23 03:34:24;;;;;;;10.75;5.95;;;12.00;99.90;;;;;;4991374;28;20038;-78
2021/06/23 03:37:01;;;;;;;9.35;5.70;;;12.10;99.90;;;;;;4991255;28;20026;-78
2021/06/23 03:39:29;;;;;;;9.57;5.75;;;12.10;99.90;;;;;;4991303;28;20398;-78
2021/06/23 03:42:01;;;;;;;8.43;5.03;;;12.10;99.90;;;;;;4991351;28;20030;-77
2021/06/23 03:44:27;;;;;;;7.75;3.80;;;12.10;99.90;;;;;;5008756;28;20030;-78
2021/06/23 03:46:55;;;;;;;10.40;6.20;;;12.20;99.90;;;;;;5008241;28;20046;-78
2021/06/23 03:49:21;;;;;;;10.65;6.00;;;12.10;99.90;;;;;;5011172;28;20034;-78
2021/06/23 03:51:47;;;;;;;7.82;4.57;;;12.10;99.90;;;;;;5028071;28;20112;-79
2021/06/23 03:54:13;;;;;;;7.68;3.53;;;12.10;99.90;;;;;;5028320;28;20076;-77
2021/06/23 03:56:44;;;;;;;13.95;5.70;;;12.10;99.90;;;;;;5029946;28;20037;-78
2021/06/23 03:59:10;;;;;;;9.90;5.20;;;12.20;99.90;;;;;;5030034;28;20037;-78
2021/06/23 04:01:35;;;;;;;11.48;6.20;;;12.10;99.90;;;;;;5029767;28;20034;-78
2021/06/23 04:04:09;;;;;;;12.10;5.97;;;12.10;99.90;;;;;;5029568;28;20061;-78
2021/06/23 04:06:47;;;;;;;10.80;6.03;;;12.10;99.90;;;;;;5047138;28;20072;-78
2021/06/23 04:09:16;;;;;;;10.77;6.47;;;12.10;99.90;;;;;;5045690;28;20044;-78
2021/06/23 04:11:46;;;;;;;8.38;6.20;;;12.10;99.90;;;;;;5029760;28;20272;-78
2021/06/23 04:14:12;;;;;;;13.93;7.75;;;12.10;99.90;;;;;;5029105;28;20046;-78
2021/06/23 04:16:38;;;;;;;13.90;8.25;;;12.10;99.90;;;;;;5028839;28;20028;-78
2021/06/23 04:19:04;;;;;;;11.13;6.53;;;12.10;99.90;;;;;;5029073;28;20034;-78
2021/06/23 04:21:32;;;;;;;11.65;5.85;;;12.10;99.90;;;;;;5045564;28;20315;-78
2021/06/23 04:24:03;;;;;;;11.27;6.88;;;12.10;99.90;;;;;;5046772;28;20026;-78
2021/06/23 04:26:32;;;;;;;12.43;7.40;;;12.10;99.90;;;;;;5028929;28;20034;-78
2021/06/23 04:28:58;;;;;;;10.48;5.82;;;12.10;99.90;;;;;;5028005;28;20056;-77
2021/06/23 04:31:26;;;;;;;10.23;7.32;;;12.20;99.90;;;;;;5029632;28;20048;-79
2021/06/23 04:33:52;;;;;;;13.48;6.32;;;12.20;99.90;;;;;;5029413;28;20473;-79
2021/06/23 04:36:18;;;;;;;9.20;5.53;;;12.30;99.90;;;;;;5028697;28;20021;-79
2021/06/23 04:38:44;;;;;;;8.23;4.10;;;12.30;99.90;;;;;;5028334;28;20105;-79
2021/06/23 04:41:11;;;;;;;6.22;4.30;;;12.30;99.90;;;;;;5028710;28;20036;-78
2021/06/23 04:43:41;;;;;;;6.93;5.63;;;12.30;99.90;;;;;;5028596;28;20091;-79
2021/06/23 04:46:06;;;;;;;8.27;5.25;;;12.30;99.90;;;;;;5028189;28;20397;-78
2021/06/23 04:48:33;;;;;;;9.88;5.03;;;12.30;99.90;;;;;;5046351;28;20033;-78
2021/06/23 04:51:01;;;;;;;8.38;5.43;;;12.30;99.90;;;;;;5028940;28;20040;-79
2021/06/23 04:53:30;;;;;;;8.90;4.50;;;12.40;99.90;;;;;;5020320;28;20065;-78
2021/06/23 04:55:58;;;;;;;6.28;3.38;;;12.40;99.90;;;;;;5041145;28;20041;-79
2021/06/23 04:58:26;;;;;;;10.87;6.10;;;12.30;99.90;;;;;;5044602;28;20025;-78
2021/06/23 05:01:01;;;;;;;8.73;4.55;;;12.30;99.90;;;;;;5028362;28;20029;-79
2021/06/23 05:03:34;;;;;;;11.32;4.93;;;12.40;99.90;;;;;;5028425;28;20036;-79
2021/06/23 05:06:00;;;;;;;9.10;5.60;;;12.40;99.90;;;;;;5028494;28;20030;-79
2021/06/23 05:08:27;;;;;;;9.25;4.82;;;12.40;99.90;;;;;;5045986;28;20335;-79
2021/06/23 05:10:53;;;;;;;10.10;5.57;;;12.40;99.90;;;;;;5045985;28;20018;-79
2021/06/23 05:13:18;;;;;;;9.15;3.80;;;12.50;99.90;;;;;;5045850;28;20084;-79
2021/06/23 05:15:44;;;;;;;11.25;4.53;;;12.60;99.90;;;;;;5028170;28;20122;-78
2021/06/23 05:18:10;;;;;;;8.95;4.93;;;12.50;99.90;;;;;;5045447;28;20434;-78
2021/06/23 05:20:36;;;;;;;7.75;3.42;;;12.60;99.90;;;;;;5045954;28;20021;-79
2021/06/23 05:23:02;;;;;;;8.40;4.22;;;12.60;99.90;;;;;;5017210;28;20045;-78
2021/06/23 05:25:27;;;;;;;7.60;4.22;;;12.60;99.90;;;;;;5005977;28;20114;-78
2021/06/23 05:27:53;;;;;;;6.97;3.22;;;12.60;99.90;;;;;;5014458;28;20482;-77
2021/06/23 05:30:19;;;;;;;9.50;5.10;;;12.70;99.90;;;;;;5024319;28;20029;-78
2021/06/23 05:32:45;;;;;;;7.88;3.90;;;12.70;99.90;;;;;;5024102;28;20116;-78
2021/06/23 05:35:11;;;;;;;4.30;2.95;;;12.80;99.90;;;;;;5025530;28;20045;-78
2021/06/23 05:37:37;;;;;;;10.00;4.82;;;12.80;99.90;;;;;;5025416;28;20022;-77
2021/06/23 05:40:03;;;;;;;8.65;4.55;;;12.80;99.90;;;;;;5025021;28;20038;-78
2021/06/23 05:42:29;;;;;;;11.48;4.88;;;12.90;99.90;;;;;;5024423;28;20041;-77
2021/06/23 05:44:55;;;;;;;7.93;4.13;;;12.90;99.90;;;;;;5024344;28;20030;-77
2021/06/23 05:47:20;;;;;;;9.10;3.15;;;13.00;99.90;;;;;;5023412;28;20060;-78
2021/06/23 05:49:46;;;;;;;5.18;3.53;;;13.20;99.90;;;;;;5025224;28;20474;-79
2021/06/23 05:52:12;;;;;;;6.70;2.50;;;13.30;99.90;;;;;;5042536;28;20026;-78
2021/06/23 05:54:37;;;;;;;8.95;4.65;;;13.50;99.90;;;;;;5011802;28;20033;-77
2021/06/23 05:57:03;;;;;;;5.30;2.95;;;13.20;99.90;;;;;;5027511;28;20370;-77
2021/06/23 05:59:30;;;;;;;6.28;3.28;;;13.30;99.90;;;;;;5007134;28;20030;-77
2021/06/23 06:01:56;;;;;;;6.88;3.55;;;13.30;99.90;;;;;;5025734;28;20022;-77
2021/06/23 06:04:22;;;;;;;6.03;3.25;;;13.40;99.90;;;;;;5024512;28;20109;-78
2021/06/23 06:06:48;;;;;;;5.40;2.65;;;13.60;99.90;;;;;;5024734;28;20061;-78
2021/06/23 06:09:13;;;;;;;7.45;2.65;;;13.60;99.90;;;;;;5024485;28;20081;-78
2021/06/23 06:11:39;;;;;;;6.32;3.30;;;13.60;99.90;;;;;;5025579;28;20103;-78
2021/06/23 06:14:05;;;;;;;7.15;2.70;;;13.80;99.90;;;;;;5024364;28;20097;-78
2021/06/23 06:16:32;;;;;;;7.72;2.95;;;13.90;99.90;;;;;;5023113;28;20037;-78
2021/06/23 06:18:57;;;;;;;10.10;3.03;;;14.00;99.90;;;;;;5024374;28;20030;-78
2021/06/23 06:21:23;;;;;;;7.82;2.55;;;13.90;99.90;;;;;;5006804;28;20049;-79
2021/06/23 06:23:49;;;;;;;6.07;1.75;;;14.00;99.90;;;;;;5023110;28;20029;-77
2021/06/23 06:26:15;;;;;;;4.13;1.50;;;13.90;99.90;;;;;;5024640;28;20018;-78
2021/06/23 06:28:41;;;;;;;2.42;0.82;;;14.20;99.90;;;;;;5024644;28;20060;-79
2021/06/23 06:31:07;;;;;;;6.70;1.63;;;14.30;99.90;;;;;;5024587;28;20022;-78
2021/06/23 06:33:33;;;;;;;6.15;1.55;;;14.30;99.90;;;;;;5024239;28;20113;-79
2021/06/23 06:35:59;;;;;;;3.83;1.25;;;14.30;99.90;;;;;;5024312;28;20041;-78
2021/06/23 06:38:24;;;;;;;4.40;1.13;;;14.50;99.90;;;;;;5006713;28;20044;-80
2021/06/23 06:40:50;;;;;;;6.07;1.55;;;14.40;99.90;;;;;;5024460;28;20032;-79
2021/06/23 06:43:16;;;;;;;7.55;1.70;;;14.30;99.90;;;;;;5024251;28;20068;-79
2021/06/23 06:45:41;;;;;;;10.27;1.40;;;14.20;99.90;;;;;;5022923;28;20081;-79
2021/06/23 06:48:08;;;;;;;5.30;0.98;;;14.30;99.90;;;;;;5006309;28;20066;-78
2021/06/23 06:50:34;;;;;;;5.43;0.90;;;14.40;99.90;;;;;;5023432;28;20021;-79
2021/06/23 06:52:59;;;;;;;5.57;1.55;;;14.40;99.90;;;;;;5008711;28;20410;-79
2021/06/23 06:55:25;;;;;;;12.13;1.90;;;14.40;99.90;;;;;;5027204;28;20061;-79
2021/06/23 06:57:52;;;;;;;10.25;1.10;;;14.30;99.90;;;;;;5027155;28;20406;-79
2021/06/23 07:00:19;;;;;;;7.60;1.88;;;14.40;99.90;;;;;;5027022;28;20101;-79
2021/06/23 07:02:45;;;;;;;5.57;0.90;;;14.30;99.90;;;;;;5028240;28;20026;-78
2021/06/23 07:05:11;;;;;;;4.90;1.17;;;14.40;99.90;;;;;;5026607;28;20126;-79
2021/06/23 07:07:37;;;;;;;6.07;1.40;;;14.40;99.90;;;;;;5010728;28;20028;-79
2021/06/23 07:10:04;;;;;;;4.43;1.00;;;14.60;99.90;;;;;;5028126;28;20029;-78
2021/06/23 07:12:31;;;;;;;6.20;1.10;;;14.70;99.90;;;;;;5027968;28;20026;-79
2021/06/23 07:14:56;;;;;;;3.15;0.75;;;14.80;99.90;;;;;;5026874;28;20096;-79
2021/06/23 07:17:22;;;;;;;4.93;0.90;;;14.90;99.90;;;;;;5027299;28;20026;-79
2021/06/23 07:19:48;;;;;;;4.72;1.42;;;14.80;99.90;;;;;;5000720;28;20498;-78
2021/06/23 07:22:13;;;;;;;6.97;0.98;;;14.60;99.90;;;;;;5028070;28;20130;-79
2021/06/23 07:24:39;;;;;;;5.53;1.33;;;14.70;99.90;;;;;;5027182;28;20042;-79
2021/06/23 07:27:05;;;;;;;9.82;1.25;;;14.60;99.90;;;;;;5010083;28;20109;-78
2021/06/23 07:29:31;;;;;;;6.47;0.95;;;14.60;99.90;;;;;;5026941;28;20034;-78
2021/06/23 07:32:00;;;;;;;5.00;1.35;;;14.60;99.90;;;;;;5027963;28;20103;-78
2021/06/23 07:36:59;;;;;;;8.10;1.02;;;14.60;99.90;;;;;;5027942;28;20034;-78
2021/06/23 07:39:25;;;;;;;7.10;1.02;;;14.50;99.90;;;;;;5027651;28;20034;-78
2021/06/23 07:41:51;;;;;;;4.32;0.90;;;14.50;99.90;;;;;;5027703;28;20064;-78
2021/06/23 07:44:22;;;;;;;6.40;1.00;;;14.70;99.90;;;;;;5009972;28;20025;-78
2021/06/23 07:46:51;;;;;;;4.20;1.05;;;14.60;99.90;;;;;;5027332;28;20061;-78
2021/06/23 07:49:18;;;;;;;5.82;0.93;;;15.00;99.90;;;;;;5027461;28;20026;-78
2021/06/23 07:54:37;;;;;;;7.50;1.05;;;15.20;99.90;;;;;;5026193;28;20072;-78
2021/06/23 08:08:26;;;;;;;6.88;1.05;;;15.60;99.90;;;;;;5047113;28;20140;-78
2021/06/23 08:10:58;;;;;;;4.72;0.52;;;15.40;99.90;;;;;;5029036;28;20029;-78
2021/06/23 08:13:24;;;;;;;3.15;0.93;;;15.80;99.90;;;;;;5045847;28;20040;-78
2021/06/23 08:15:50;;;;;;;10.88;0.77;;;15.40;99.90;;;;;;5046710;28;20029;-78
2021/06/23 08:18:20;;;;;;;5.43;0.68;;;15.10;99.90;;;;;;5046731;28;20064;-78
2021/06/23 08:20:47;;;;;;;2.30;0.43;;;15.60;99.90;;;;;;5045442;28;20037;-78
2021/06/23 08:23:13;;;;;;;1.85;0.40;;;16.10;99.90;;;;;;5045454;28;20056;-78
2021/06/23 08:25:39;;;;;;;2.13;0.50;;;16.30;99.90;;;;;;5046942;28;20033;-77
2021/06/23 08:28:05;;;;;;;7.88;0.80;;;16.10;99.90;;;;;;5046469;28;20116;-78
2021/06/23 08:30:31;;;;;;;4.50;0.60;;;15.90;99.90;;;;;;5028966;28;20038;-78
2021/06/23 08:32:58;;;;;;;3.03;0.50;;;15.90;99.90;;;;;;5045394;28;20033;-77
2021/06/23 08:35:24;;;;;;;5.05;0.63;;;15.90;99.90;;;;;;5028573;28;20040;-78
2021/06/23 08:37:50;;;;;;;4.05;0.70;;;16.00;99.90;;;;;;5046263;28;20033;-77
2021/06/23 08:40:16;;;;;;;4.00;0.68;;;15.80;99.90;;;;;;5046468;28;20130;-77
2021/06/23 08:42:42;;;;;;;2.53;0.50;;;16.20;99.90;;;;;;5046502;28;20056;-78
2021/06/23 08:45:09;;;;;;;7.20;0.80;;;16.20;99.90;;;;;;5044803;28;20041;-77
2021/06/23 08:47:46;;;;;;;2.45;0.50;;;16.10;99.90;;;;;;5044997;28;20083;-78
2021/06/23 08:50:18;;;;;;;3.90;0.65;;;16.20;99.90;;;;;;5046306;28;20037;-78
2021/06/23 08:52:44;;;;;;;4.78;0.43;;;16.40;99.90;;;;;;5026554;28;20030;-78
2021/06/23 08:55:10;;;;;;;3.58;0.47;;;16.40;99.90;;;;;;5033153;28;20136;-78
2021/06/23 08:57:36;;;;;;;6.38;0.80;;;16.70;99.90;;;;;;5046114;28;20025;-78
2021/06/23 09:00:05;;;;;;;4.47;0.73;;;16.40;99.90;;;;;;5028363;28;20040;-78
2021/06/23 09:02:31;;;;;;;7.63;0.93;;;16.50;99.90;;;;;;5028379;28;20132;-78
2021/06/23 09:04:57;;;;;;;4.63;0.85;;;16.70;99.90;;;;;;5046214;28;20741;-78
2021/06/23 09:07:36;;;;;;;3.65;0.50;;;16.60;99.90;;;;;;5028036;28;20029;-79
2021/06/23 09:10:06;;;;;;;4.65;0.60;;;16.60;99.90;;;;;;5046034;28;20056;-78
2021/06/23 09:12:31;;;;;;;2.72;0.80;;;16.70;99.90;;;;;;5046028;28;20029;-78
2021/06/23 09:15:00;;;;;;;3.65;0.30;;;17.30;99.90;;;;;;5045733;28;20096;-78
2021/06/23 09:17:26;;;;;;;4.10;0.40;;;17.40;99.90;;;;;;5027918;28;20041;-78
2021/06/23 09:19:58;;;;;;;4.78;0.60;;;17.40;99.90;;;;;;5028042;28;20048;-78
2021/06/23 09:22:47;;;;;;;4.85;0.70;;;17.30;99.90;;;;;;5045513;28;20037;-78
2021/06/23 09:25:12;;;;;;;6.97;0.80;;;16.60;99.90;;;;;;5045762;28;20029;-78
2021/06/23 09:28:05;;;;;;;2.63;0.50;;;16.50;99.90;;;;;;5027876;28;20042;-77
2021/06/23 09:30:37;;;;;;;3.97;0.70;;;17.00;99.90;;;;;;5043748;28;20051;-78
2021/06/23 09:33:07;;;;;;;4.03;0.98;;;16.50;99.90;;;;;;5045748;28;20072;-78
2021/06/23 09:35:33;;;;;;;;;;;16.80;99.90;;;;;;5045858;28;20053;-78
2021/06/23 09:37:59;;;;;;;5.55;0.50;;;16.60;99.90;;;;;;5045299;28;19905;-78
2021/06/23 09:40:29;;;;;;;3.05;0.50;;;16.90;99.90;;;;;;5045560;28;20385;-78
2021/06/23 09:43:00;;;;;;;5.82;1.20;;;17.10;99.90;;;;;;5027903;28;20065;-78
2021/06/23 09:45:52;;;;;;;5.53;0.90;;;16.70;99.90;;;;;;5045607;28;20095;-78
2021/06/23 09:48:18;;;;;;;4.53;0.60;;;16.60;99.90;;;;;;5003546;28;20073;-78
2021/06/23 09:50:44;;;;;;;5.85;0.60;;;16.70;99.90;;;;;;4999112;28;20073;-78
2021/06/23 09:53:13;;;;;;;5.88;0.77;;;16.70;99.90;;;;;;4983646;28;20043;-78
2021/06/23 09:55:41;;;;;;;3.00;0.43;;;16.70;99.90;;;;;;4979243;28;20533;-77
2021/06/23 09:58:20;;;;;;;4.18;0.60;;;17.20;99.90;;;;;;5003046;28;20031;-78
2021/06/23 10:01:06;;;;;;;2.83;0.50;;;17.10;99.90;;;;;;5003290;28;20041;-78
2021/06/23 10:03:50;;;;;;;2.78;0.50;;;17.50;99.90;;;;;;4986952;28;20108;-78
2021/06/23 10:06:47;;;;;;;4.68;0.60;;;17.40;99.90;;;;;;5003206;28;20095;-78
2021/06/23 10:09:22;;;;;;;2.90;0.80;;;17.30;99.90;;;;;;4986644;28;20038;-78
2021/06/23 10:11:53;;;;;;;3.95;0.70;;;17.50;99.90;;;;;;5003155;28;20129;-78
2021/06/23 10:14:20;;;;;;;2.00;0.45;;;17.10;99.90;;;;;;5003012;28;20066;-78
2021/06/23 10:16:48;;;;;;;5.22;0.70;;;17.30;99.90;;;;;;5002916;28;20053;-78
2021/06/23 10:19:14;;;;;;;6.18;0.70;;;17.00;99.90;;;;;;4986629;28;20126;-78
2021/06/23 10:21:40;;;;;;;1.42;0.55;;;17.40;99.90;;;;;;5003061;28;20469;-78
2021/06/23 10:24:09;;;;;;;4.78;0.60;;;17.90;99.90;;;;;;5003183;28;20030;-78
2021/06/23 10:26:57;;;;;;;3.78;0.65;;;17.50;99.90;;;;;;5044725;28;20030;-78
2021/06/23 10:29:34;;;;;;;4.93;1.02;;;17.40;99.90;;;;;;5030174;28;20048;-78
2021/06/23 10:32:01;;;;;;;5.65;1.10;;;17.50;99.90;;;;;;5048850;28;20032;-79
2021/06/23 10:34:27;;;;;;;4.32;0.65;;;17.40;99.90;;;;;;5048779;28;20088;-78
2021/06/23 10:36:53;;;;;;;8.77;0.95;;;17.50;99.90;;;;;;5030826;28;20065;-78
2021/06/23 10:39:21;;;;;;;4.32;0.80;;;17.40;99.90;;;;;;5047154;28;20029;-79
2021/06/23 10:41:53;;;;;;;4.55;1.10;;;17.50;99.90;;;;;;5048649;28;20334;-79
2021/06/23 10:44:35;;;;;;;5.93;0.80;;;17.20;99.90;;;;;;5047493;28;20059;-78
2021/06/23 10:47:04;;;;;;;4.53;0.50;;;17.20;99.90;;;;;;5081664;22;20060;-79
2021/06/23 10:49:43;;;;;;;4.20;0.68;;;17.90;99.90;;;;;;5109215;28;20108;-78
2021/06/23 10:52:19;;;;;;;2.83;0.50;;;18.40;99.90;;;;;;5090878;28;20101;-79
2021/06/23 10:54:46;;;;;;;3.13;0.60;;;18.50;99.90;;;;;;5095679;28;20136;-79
2021/06/23 10:57:32;;;;;;;3.08;0.70;;;18.60;99.90;;;;;;5129626;28;20055;-79
2021/06/23 11:00:08;;;;;;;2.85;0.60;;;18.20;99.90;;;;;;5111386;28;20490;-78
2021/06/23 11:02:38;;;;;;;3.38;0.50;;;18.60;99.90;;;;;;5111227;28;20038;-79
2021/06/23 11:05:06;;;;;;;2.17;0.60;;;19.30;99.90;;;;;;5094254;28;20031;-79
2021/06/23 11:07:39;;;;;;;3.83;0.45;;;19.10;99.90;;;;;;5110826;28;20043;-79
2021/06/23 11:10:15;;;;;;;3.70;0.52;;;19.20;99.90;;;;;;5111063;28;20038;-79
2021/06/23 11:12:43;;;;;;;2.00;0.40;;;19.40;99.90;;;;;;5111015;28;20024;-79
2021/06/23 11:15:13;;;;;;;2.80;0.57;;;19.50;99.90;;;;;;5129419;28;20111;-79
2021/06/23 11:17:39;;;;;;;;;;;19.20;99.90;;;;;;5093892;28;20118;-79
2021/06/23 11:20:24;;;;;;;2.20;0.50;;;19.30;99.90;;;;;;5093896;28;19918;-79
2021/06/23 11:22:55;;;;;;;1.98;0.40;;;19.10;99.90;;;;;;5093392;28;20047;-78
2021/06/23 11:25:27;;;;;;;1.88;0.30;;;19.50;99.90;;;;;;5110542;28;20463;-79
2021/06/23 11:28:08;;;;;;;2.22;0.47;;;19.50;99.90;;;;;;5128585;28;20129;-79
2021/06/23 11:30:51;;;;;;;2.58;0.40;;;19.30;99.90;;;;;;5110425;28;20028;-78
2021/06/23 11:33:29;;;;;;;2.90;0.43;;;19.70;99.90;;;;;;5128959;28;20137;-79
2021/06/23 11:36:03;;;;;;;2.15;0.50;;;19.40;99.90;;;;;;5110224;28;20044;-79
2021/06/23 11:38:29;;;;;;;1.85;0.40;;;19.20;99.90;;;;;;5128104;28;20027;-79
2021/06/23 11:40:56;;;;;;;4.72;0.50;;;19.60;99.90;;;;;;5110240;28;20035;-79
2021/06/23 11:43:23;;;;;;;1.48;0.30;;;19.70;99.90;;;;;;5110208;28;20031;-79
2021/06/23 11:45:49;;;;;;;1.45;0.35;;;19.80;99.90;;;;;;5110008;28;20103;-78
2021/06/23 11:48:16;;;;;;;1.88;0.57;;;19.30;99.90;;;;;;5127837;28;20051;-79
2021/06/23 11:50:43;;;;;;;4.93;0.75;;;19.20;99.90;;;;;;5124127;28;20518;-79
2021/06/23 11:53:11;;;;;;;5.15;0.70;;;18.80;99.90;;;;;;5072929;28;20028;-79
2021/06/23 11:55:37;;;;;;;4.25;0.75;;;18.70;99.90;;;;;;5119572;28;20061;-79
2021/06/23 11:58:04;;;;;;;2.28;0.45;;;19.50;99.90;;;;;;5109521;28;20027;-80
2021/06/23 12:00:30;;;;;;;3.45;0.70;;;19.40;99.90;;;;;;5128109;28;20061;-79
2021/06/23 12:02:59;;;;;;;3.63;0.70;;;18.90;99.90;;;;;;5128010;28;20035;-79
2021/06/23 12:05:25;;;;;;;2.20;0.60;;;19.20;99.90;;;;;;5109734;28;20031;-79
2021/06/23 12:07:52;;;;;;;5.38;0.60;;;19.00;99.90;;;;;;5127773;28;20062;-78
2021/06/23 12:10:19;;;;;;;3.75;0.68;;;19.00;99.90;;;;;;5109665;28;20042;-79
2021/06/23 12:12:47;;;;;;;3.95;0.68;;;18.70;99.90;;;;;;5109186;28;20059;-79
2021/06/23 12:15:13;;;;;;;5.60;0.50;;;18.80;99.90;;;;;;5109071;28;20134;-79
2021/06/23 12:17:39;;;;;;;3.13;0.50;;;19.40;99.90;;;;;;5109287;28;20035;-79
2021/06/23 12:20:07;;;;;;;3.78;0.50;;;19.80;99.90;;;;;;5109354;28;20032;-80
2021/06/23 12:22:34;;;;;;;1.83;0.50;;;19.40;99.90;;;;;;5110161;28;20027;-80
2021/06/23 12:25:01;;;;;;;4.20;0.60;;;19.40;99.90;;;;;;5109477;28;20027;-79
2021/06/23 12:27:27;;;;;;;4.43;0.98;;;19.30;99.90;;;;;;5127257;28;20064;-79
2021/06/23 12:29:52;;;;;;;1.70;0.50;;;19.30;99.90;;;;;;5127535;28;20032;-79
2021/06/23 12:32:18;;;;;;;4.25;0.60;;;19.80;99.90;;;;;;5092200;28;20055;-79
2021/06/23 12:34:44;;;;;;;2.17;0.55;;;19.40;99.90;;;;;;5108989;28;20143;-79
2021/06/23 12:37:09;;;;;;;2.80;0.55;;;19.20;99.90;;;;;;5109014;28;20028;-79
2021/06/23 12:39:35;;;;;;;3.25;0.60;;;19.50;99.90;;;;;;5109053;28;20015;-79
2021/06/23 12:42:01;;;;;;;2.90;0.77;;;19.20;99.90;;;;;;5127156;28;20028;-79
2021/06/23 12:44:27;;;;;;;5.88;0.90;;;19.10;99.90;;;;;;5108862;28;20050;-79
2021/06/23 12:46:53;;;;;;;5.03;0.80;;;18.60;99.90;;;;;;5126750;28;20078;-79
2021/06/23 12:49:19;;;;;;;1.73;0.40;;;18.70;99.90;;;;;;5108428;28;20078;-79
2021/06/23 12:51:44;;;;;;;4.55;0.70;;;19.30;99.90;;;;;;5113337;28;20091;-79
2021/06/23 12:54:10;;;;;;;4.05;0.47;;;19.70;99.90;;;;;;5088279;28;20028;-79
2021/06/23 12:56:37;;;;;;;5.05;1.00;;;20.00;99.90;;;;;;5108390;28;20032;-79
2021/06/23 12:59:03;;;;;;;4.30;0.90;;;19.20;99.90;;;;;;5108376;28;20070;-79
2021/06/23 13:01:29;;;;;;;3.92;0.70;;;18.90;99.90;;;;;;5091407;28;20042;-79
2021/06/23 13:03:54;;;;;;;2.15;0.40;;;19.20;99.90;;;;;;5108632;28;20024;-79
2021/06/23 13:06:20;;;;;;;4.88;0.60;;;19.70;99.90;;;;;;5108641;28;20076;-79
2021/06/23 13:08:46;;;;;;;3.53;0.60;;;19.50;99.90;;;;;;5126505;28;20035;-79
2021/06/23 13:11:13;;;;;;;3.65;0.60;;;19.00;99.90;;;;;;5108327;28;20130;-79
2021/06/23 13:13:40;;;;;;;4.07;0.57;;;19.10;99.90;;;;;;5108105;28;20060;-79
2021/06/23 13:16:07;;;;;;;1.60;0.75;;;19.10;99.90;;;;;;5126533;28;20040;-79